FW4663 Weather Reports


time (UTC)temp
F
wind
direction
speed
knots
gust
knots
rain 1hr
in
rain 24hr
in
rain mn
in
humidity
%
barometer
mb
20260510130013 68 112 1.7 3.5 0.00 1.97 0.00 96 1016.5
20260510124510 68 123 0.9 2.6 0.00 1.97 0.00 96 1016.2
20260510123008 67 113 0.9 3.5 0.00 1.97 0.00 96 1015.8
20260510121508 67 80 0.0 1.7 0.00 1.97 0.00 96 1015.8
20260510120007 66 61 0.0 0.9 0.00 1.97 0.00 96 1015.6
20260510114504 66 92 0.0 2.6 0.00 1.97 0.00 96 1015.3
20260510113002 66 123 1.7 4.3 0.00 1.97 0.00 96 1015.1
20260510111600 66 83 0.9 2.6 0.00 1.97 0.00 96 1014.9
20260510110104 66 116 0.9 2.6 0.00 1.97 0.00 95 1014.5
20260510104610 66 117 0.0 0.0 0.00 1.97 0.00 95 1014.3
20260510103055 65 117 0.0 0.0 0.00 1.97 0.00 95 1013.9
20260510101555 66 117 0.0 0.9 0.00 1.97 0.00 95 1013.7
20260510100057 66 117 0.0 0.0 0.00 1.97 0.00 95 1013.7
20260510094552 65 115 0.0 0.0 0.00 1.97 0.00 95 1013.8
20260510093051 65 11 0.0 0.0 0.00 1.97 0.00 95 1013.8
20260510091550 65 11 0.0 0.0 0.00 1.97 0.00 95 1013.6
20260510090050 66 11 0.0 0.0 0.00 1.97 0.00 95 1013.6
20260510084552 66 11 0.9 1.7 0.00 1.97 0.00 95 1013.6
20260510083048 66 11 0.0 1.7 0.00 1.97 0.00 95 1013.5
20260510081546 65 11 0.9 1.7 0.00 1.97 0.00 94 1013.6
20260510080043 66 28 0.0 0.0 0.00 1.97 0.00 94 1013.2
20260510074549 66 28 0.0 0.0 0.00 1.97 0.00 94 1013.1
20260510073046 67 28 0.0 0.0 0.00 1.97 0.00 94 1013.0
20260510071547 67 13 0.0 0.0 0.00 1.97 0.00 94 1013.0
20260510070041 67 34 0.0 1.7 0.00 1.97 0.00 94 1012.7
20260510064540 67 31 0.9 3.5 0.00 1.97 0.00 93 1012.9
20260510063034 68 360 1.7 7.8 0.00 1.97 0.00 93 1013.0
20260510061532 68 333 0.0 13.9 0.00 1.97 0.00 93 1012.9
20260510060034 69 183 0.0 7.8 0.00 1.97 0.00 92 1012.2
20260510054527 69 184 4.3 7.0 0.00 1.97 0.00 92 1012.2
20260510053026 69 206 2.6 6.1 0.00 1.97 0.00 93 1012.4
20260510051536 69 156 3.5 7.0 0.00 1.97 0.00 93 1012.4
20260510050022 68 141 3.5 7.8 0.00 1.97 1.97 94 1012.4
20260510044524 68 165 4.3 9.6 0.00 1.97 1.97 95 1012.5
20260510043024 68 178 4.3 8.7 0.00 1.97 1.97 95 1012.8
20260510041520 68 186 4.3 7.8 0.00 1.97 1.97 95 1013.3
20260510040020 68 180 0.0 2.6 0.00 1.97 1.97 95 1013.7
20260510034519 68 170 1.7 4.3 0.00 1.97 1.97 95 1014.0
20260510033021 68 178 0.9 3.5 0.00 1.97 1.97 95 1014.4
20260510031519 68 22 0.0 0.0 0.00 1.97 1.97 95 1014.7
20260510030019 68 22 0.0 0.0 0.00 1.97 1.97 95 1014.6
20260510024522 68 22 0.0 0.0 0.00 1.97 1.97 95 1014.6
20260510023019 68 137 0.0 1.7 0.00 1.97 1.97 95 1014.1
20260510021517 68 155 0.0 0.0 0.00 1.97 1.97 95 1013.9
20260510020016 68 155 0.0 0.9 0.00 1.97 1.97 95 1013.6
20260510014522 68 158 0.9 3.5 0.00 1.97 1.97 95 1013.5
20260510013017 68 139 0.9 5.2 0.00 1.97 1.97 95 1013.3
20260510011523 68 138 0.9 5.2 0.00 1.97 1.97 95 1012.9
20260510010015 68 132 3.5 8.7 0.00 1.97 1.97 95 1012.7
20260510004513 68 157 2.6 8.7 0.00 1.97 1.97 94 1012.5
20260510003014 68 144 4.3 8.7 0.00 1.97 1.97 95 1012.6
20260510001513 69 142 3.5 8.7 0.00 1.97 1.97 95 1012.6
20260510000013 69 147 4.3 7.8 0.00 1.97 1.97 94 1012.6
20260509234511 69 165 1.7 3.5 0.00 1.97 1.97 94 1012.7
20260509233010 69 151 1.7 6.1 0.01 1.97 1.97 94 1012.7
20260509231513 69 147 1.7 5.2 0.01 1.97 1.97 94 1012.6
20260509230010 69 116 0.0 1.7 0.01 1.97 1.97 94 1012.7
20260509224511 69 91 1.7 2.6 0.01 1.97 1.97 94 1012.4
20260509223011 69 93 0.0 6.1 0.00 1.96 1.96 94 1012.6
20260509221524 68 38 0.9 3.5 0.01 1.96 1.96 94 1012.7
20260509220008 68 102 1.7 3.5 0.03 2.02 1.96 94 1012.4
20260509214507 68 113 0.9 3.5 0.03 2.02 1.96 94 1012.4
20260509213007 68 68 0.0 3.5 0.03 2.02 1.96 94 1012.5
20260509211507 68 61 0.9 3.5 0.02 2.00 1.95 94 1012.5
20260509210006 68 129 1.7 6.1 0.00 2.48 1.93 94 1012.5
20260509204505 68 111 1.7 7.8 0.00 2.48 1.93 94 1012.1
20260509203005 68 130 4.3 10.4 0.00 2.48 1.93 94 1011.9
20260509201505 68 126 4.3 10.4 0.00 2.48 1.93 95 1012.2
20260509200004 67 111 5.2 10.4 0.00 2.80 1.93 95 1012.6
20260509194503 67 101 6.1 10.4 0.03 2.80 1.93 95 1012.8
20260509193003 68 96 7.0 10.4 0.06 2.80 1.93 96 1012.9
20260509191504 67 152 1.7 6.1 0.12 2.80 1.93 95 1013.9
20260509190002 67 161 3.5 7.0 0.15 2.79 1.92 95 1013.7
20260509184503 67 136 2.6 6.1 0.18 2.77 1.90 95 1013.5
20260509183001 67 142 1.7 6.1 0.20 2.74 1.87 95 1014.4
20260509181501 66 116 2.6 7.0 0.19 2.68 1.81 95 1014.3
20260509180101 66 141 7.0 10.4 0.18 2.64 1.77 95 1013.4
20260509174559 67 128 3.5 7.0 0.50 2.59 1.72 95 1014.1
20260509173109 67 74 5.2 9.6 0.96 2.54 1.68 95 1013.9
20260509171617 67 141 7.0 13.9 0.93 2.49 1.62 95 1013.7
20260509170057 67 144 5.2 15.6 0.90 2.45 1.58 95 1013.4
20260509164556 67 156 7.8 11.3 0.60 2.06 1.20 94 1014.1
20260509163058 68 115 1.7 9.6 0.16 1.58 0.71 94 1014.6
20260509161553 67 103 5.2 13.0 0.17 1.56 0.69 94 1014.2
20260509160050 67 109 4.3 8.7 0.27 1.55 0.68 94 1013.9
20260509154549 67 40 3.5 7.8 0.33 1.47 0.60 94 1013.9
20260509153048 67 117 6.1 10.4 0.33 1.42 0.55 94 1013.9
20260509151548 67 112 2.6 7.0 0.36 1.37 0.50 94 1013.8
20260509150048 66 123 3.5 6.1 0.38 1.28 0.41 94 1014.0
20260509144549 66 79 1.7 7.0 0.26 1.14 0.27 93 1014.1
20260509143044 66 67 2.6 7.0 0.21 1.10 0.22 93 1013.6
20260509141548 66 136 0.9 4.3 0.13 1.02 0.14 93 1013.9
20260509140042 66 42 2.6 17.4 0.03 0.91 0.03 92 1013.7
20260509134551 66 28 5.2 15.6 0.01 0.89 0.01 91 1013.3
20260509133037 68 106 6.1 16.5 0.01 0.89 0.01 88 1014.0
20260509131550 76 74 9.6 16.5 0.00 0.88 0.00 92 1013.5